createdAt,value
2022-08-25T00:01:27.000Z,3.1
2022-08-25T00:02:57.000Z,2.9
2022-08-25T00:04:28.000Z,2.8
2022-08-25T00:05:58.000Z,3
2022-08-25T00:07:15.000Z,3
2022-08-25T00:08:32.000Z,2.8
2022-08-25T00:10:02.000Z,2.8
2022-08-25T00:11:33.000Z,3.2
2022-08-25T00:13:03.000Z,3.1
2022-08-25T00:14:34.000Z,3
2022-08-25T00:16:04.000Z,2.7
2022-08-25T00:17:35.000Z,2.6
2022-08-25T00:19:05.000Z,2.7
2022-08-25T00:20:36.000Z,2.6
2022-08-25T00:22:06.000Z,2.9
2022-08-25T00:23:23.000Z,3
2022-08-25T00:24:40.000Z,2.6
2022-08-25T00:26:11.000Z,2.7
2022-08-25T00:27:41.000Z,2.7
2022-08-25T00:29:12.000Z,3.1
2022-08-25T00:30:42.000Z,3
2022-08-25T00:32:13.000Z,2.5
2022-08-25T00:33:43.000Z,3
2022-08-25T00:35:14.000Z,2.9
2022-08-25T00:36:44.000Z,3.1
2022-08-25T00:38:15.000Z,2.8
2022-08-25T00:40:49.000Z,2.8
2022-08-25T00:42:19.000Z,3
2022-08-25T00:43:50.000Z,2.8
2022-08-25T00:45:20.000Z,3
2022-08-25T00:46:51.000Z,2.9
2022-08-25T00:48:21.000Z,3
2022-08-25T00:49:52.000Z,2.8
2022-08-25T00:51:22.000Z,2.8
2022-08-25T00:52:53.000Z,2.8
2022-08-25T00:54:23.000Z,2.9
2022-08-25T00:55:40.000Z,2.8
2022-08-25T00:56:57.000Z,2.7
2022-08-25T00:58:28.000Z,2.7
2022-08-25T00:59:58.000Z,2.6
2022-08-25T01:01:29.000Z,2.6
2022-08-25T01:02:59.000Z,2.5
2022-08-25T01:04:30.000Z,2.7
2022-08-25T01:06:00.000Z,3
2022-08-25T01:07:31.000Z,2.6
2022-08-25T01:09:01.000Z,2.6
2022-08-25T01:11:49.000Z,2.6
2022-08-25T01:13:06.000Z,2.8
2022-08-25T01:17:37.000Z,2.9
2022-08-25T01:19:08.000Z,2.6
2022-08-25T01:20:38.000Z,3.1
2022-08-25T01:22:09.000Z,3.1
2022-08-25T01:23:39.000Z,2.8
2022-08-25T01:25:10.000Z,2.7
2022-08-25T01:26:40.000Z,3
2022-08-25T01:27:57.000Z,2.9
2022-08-25T01:29:14.000Z,3.1
2022-08-25T01:30:45.000Z,3
2022-08-25T01:32:15.000Z,3
2022-08-25T01:33:46.000Z,2.6
2022-08-25T01:36:47.000Z,2.8
2022-08-25T01:38:18.000Z,2.6
2022-08-25T01:39:48.000Z,2.7
2022-08-25T01:41:19.000Z,2.5
2022-08-25T01:42:49.000Z,2.6
2022-08-25T01:44:06.000Z,2.6
2022-08-25T01:45:23.000Z,2.8
2022-08-25T01:46:53.000Z,2.6
2022-08-25T01:48:24.000Z,2.4
2022-08-25T01:49:55.000Z,2.8
2022-08-25T01:51:25.000Z,2.7
2022-08-25T01:52:56.000Z,2.5
2022-08-25T01:54:26.000Z,2.4
2022-08-25T01:55:57.000Z,2.7
2022-08-25T01:57:27.000Z,2.7
2022-08-25T01:58:58.000Z,2.4
2022-08-25T02:01:32.000Z,2.6
2022-08-25T02:03:02.000Z,2.7
2022-08-25T02:04:33.000Z,2.9
2022-08-25T02:07:34.000Z,2.5
2022-08-25T02:09:04.000Z,2.4
2022-08-25T02:10:35.000Z,2.9
2022-08-25T02:12:05.000Z,2.6
2022-08-25T02:13:36.000Z,2.6
2022-08-25T02:15:06.000Z,2.8
2022-08-25T02:16:23.000Z,2.7
2022-08-25T02:17:40.000Z,2.6
2022-08-25T02:19:11.000Z,2.9
2022-08-25T02:20:41.000Z,3.1
2022-08-25T02:22:12.000Z,2.7
2022-08-25T02:23:42.000Z,2.9
2022-08-25T02:25:13.000Z,2.8
2022-08-25T02:26:43.000Z,3
2022-08-25T02:28:14.000Z,2.7
2022-08-25T02:29:44.000Z,2.5
2022-08-25T02:31:15.000Z,2.8
2022-08-25T02:32:31.000Z,2.7
2022-08-25T02:33:48.000Z,2.7
2022-08-25T02:35:19.000Z,2.8
2022-08-25T02:36:49.000Z,2.8
2022-08-25T02:38:20.000Z,3
2022-08-25T02:39:50.000Z,2.5
2022-08-25T02:41:21.000Z,2.7
2022-08-25T02:42:51.000Z,2.9
2022-08-25T02:44:22.000Z,3.1
2022-08-25T02:45:52.000Z,3
2022-08-25T02:47:23.000Z,3
2022-08-25T02:48:40.000Z,3
2022-08-25T02:49:57.000Z,2.6
2022-08-25T02:51:27.000Z,2.9
2022-08-25T02:52:58.000Z,2.8
2022-08-25T02:54:28.000Z,3.1
2022-08-25T02:55:59.000Z,3
2022-08-25T02:57:29.000Z,3
2022-08-25T02:59:00.000Z,2.8
2022-08-25T03:00:30.000Z,2.9
2022-08-25T03:02:01.000Z,3
2022-08-25T03:03:31.000Z,2.9
2022-08-25T03:04:48.000Z,2.7
2022-08-25T03:06:05.000Z,3.1
2022-08-25T03:07:36.000Z,3
2022-08-25T03:09:06.000Z,3.2
2022-08-25T03:10:37.000Z,3
2022-08-25T03:12:07.000Z,3.1
2022-08-25T03:13:38.000Z,3.1
2022-08-25T03:15:08.000Z,3.2
2022-08-25T03:16:39.000Z,2.6
2022-08-25T03:18:09.000Z,3.3
2022-08-25T03:19:40.000Z,3.1
2022-08-25T03:20:57.000Z,3
2022-08-25T03:22:14.000Z,3.1
2022-08-25T03:23:44.000Z,2.9
2022-08-25T03:25:15.000Z,3.3
2022-08-25T03:26:45.000Z,2.9
2022-08-25T03:28:16.000Z,3.1
2022-08-25T03:29:46.000Z,2.8
2022-08-25T03:31:17.000Z,3
2022-08-25T03:32:48.000Z,3
2022-08-25T03:34:18.000Z,3.4
2022-08-25T03:35:49.000Z,3.4
2022-08-25T03:37:05.000Z,3.3
2022-08-25T03:38:22.000Z,3.3
2022-08-25T03:39:53.000Z,3.3
2022-08-25T03:41:23.000Z,3.3
2022-08-25T03:42:54.000Z,3.1
2022-08-25T03:44:25.000Z,3.5
2022-08-25T03:45:55.000Z,3.2
2022-08-25T03:47:34.000Z,3.2
2022-08-25T03:49:04.000Z,3.4
2022-08-25T03:50:35.000Z,3.6
2022-08-25T03:52:05.000Z,3.6
2022-08-25T03:53:22.000Z,3.8
2022-08-25T03:54:39.000Z,3.9
2022-08-25T03:56:10.000Z,3.7
2022-08-25T03:57:40.000Z,4.1
2022-08-25T03:59:11.000Z,4
2022-08-25T04:00:41.000Z,3.7
2022-08-25T04:02:12.000Z,3.2
2022-08-25T04:03:42.000Z,4
2022-08-25T04:05:13.000Z,4.1
2022-08-25T04:06:43.000Z,4.3
2022-08-25T04:08:14.000Z,4
2022-08-25T04:09:31.000Z,4
2022-08-25T04:10:48.000Z,3.9
2022-08-25T04:12:18.000Z,4.1
2022-08-25T04:13:49.000Z,4.2
2022-08-25T04:15:19.000Z,4.3
2022-08-25T04:16:50.000Z,4
2022-08-25T04:18:20.000Z,4
2022-08-25T04:19:51.000Z,3.7
2022-08-25T04:21:21.000Z,4.3
2022-08-25T04:22:52.000Z,3.6
2022-08-25T04:24:22.000Z,4.1
2022-08-25T04:25:39.000Z,4.1
2022-08-25T04:26:56.000Z,3.9
2022-08-25T04:28:27.000Z,4
2022-08-25T04:29:57.000Z,4.1
2022-08-25T04:31:28.000Z,3.6
2022-08-25T04:32:58.000Z,3.9
2022-08-25T04:34:29.000Z,4.2
2022-08-25T04:35:59.000Z,3.7
2022-08-25T04:37:30.000Z,4.1
2022-08-25T04:39:00.000Z,4
2022-08-25T04:40:31.000Z,4
2022-08-25T04:43:05.000Z,4.4
2022-08-25T04:44:35.000Z,4.6
2022-08-25T04:46:06.000Z,4.1
2022-08-25T04:47:36.000Z,4.7
2022-08-25T04:49:07.000Z,4.3
2022-08-25T04:50:37.000Z,4.2
2022-08-25T04:52:08.000Z,4.1
2022-08-25T04:53:38.000Z,4.5
2022-08-25T04:55:09.000Z,4.4
2022-08-25T04:56:39.000Z,4.4
2022-08-25T04:57:56.000Z,4.3
2022-08-25T04:59:13.000Z,4.2
2022-08-25T05:00:44.000Z,4.4
2022-08-25T05:02:14.000Z,4.3
2022-08-25T05:03:45.000Z,3.9
2022-08-25T05:05:15.000Z,4.4
2022-08-25T05:06:46.000Z,4.1
2022-08-25T05:08:16.000Z,4
2022-08-25T05:09:47.000Z,4.3
2022-08-25T05:11:17.000Z,4.1
2022-08-25T05:12:48.000Z,4.4
2022-08-25T05:14:05.000Z,4.1
2022-08-25T05:15:22.000Z,3.8
2022-08-25T05:16:52.000Z,3.8
2022-08-25T05:18:23.000Z,4
2022-08-25T05:19:53.000Z,4.2
2022-08-25T05:21:24.000Z,3.8
2022-08-25T05:22:55.000Z,4.1
2022-08-25T05:24:25.000Z,4.1
2022-08-25T05:25:56.000Z,4.2
2022-08-25T05:27:26.000Z,4.4
2022-08-25T05:28:57.000Z,4.5
2022-08-25T05:30:13.000Z,3.9
2022-08-25T05:31:30.000Z,4.4
2022-08-25T05:33:01.000Z,4
2022-08-25T05:34:31.000Z,3.5
2022-08-25T05:36:02.000Z,4.7
2022-08-25T05:37:32.000Z,4.2
2022-08-25T05:39:03.000Z,4.2
2022-08-25T05:40:33.000Z,4.2
2022-08-25T05:42:04.000Z,4.8
2022-08-25T05:43:34.000Z,4.2
2022-08-25T05:45:05.000Z,4.6
2022-08-25T05:46:22.000Z,4.3
2022-08-25T05:47:39.000Z,4.5
2022-08-25T05:49:09.000Z,4.6
2022-08-25T05:50:40.000Z,4.7
2022-08-25T05:52:10.000Z,3.7
2022-08-25T05:53:41.000Z,4.4
2022-08-25T05:55:11.000Z,4.5
2022-08-25T05:56:42.000Z,4.3
2022-08-25T05:58:12.000Z,4.1
2022-08-25T05:59:43.000Z,4.6
2022-08-25T06:01:13.000Z,5
2022-08-25T06:03:47.000Z,4.6
2022-08-25T06:05:18.000Z,4.9
2022-08-25T06:06:48.000Z,4.2
2022-08-25T06:08:19.000Z,4.7
2022-08-25T06:09:49.000Z,4.5
2022-08-25T06:11:20.000Z,4.7
2022-08-25T06:12:50.000Z,4.7
2022-08-25T06:14:21.000Z,4.2
2022-08-25T06:15:51.000Z,4.8
2022-08-25T06:17:22.000Z,4.4
2022-08-25T06:18:39.000Z,4.7
2022-08-25T06:19:56.000Z,4.6
2022-08-25T06:21:26.000Z,4.3
2022-08-25T06:22:57.000Z,5.3
2022-08-25T06:24:27.000Z,4.5
2022-08-25T06:25:58.000Z,4.6
2022-08-25T06:27:28.000Z,4.9
2022-08-25T06:28:59.000Z,4.6
2022-08-25T06:30:29.000Z,4.7
2022-08-25T06:32:00.000Z,4.8
2022-08-25T06:33:30.000Z,4.6
2022-08-25T06:34:47.000Z,4.7
2022-08-25T06:36:04.000Z,4.5
2022-08-25T06:37:34.000Z,4.7
2022-08-25T06:39:05.000Z,4.5
2022-08-25T06:40:35.000Z,4.5
2022-08-25T06:42:06.000Z,4.8
2022-08-25T06:43:36.000Z,4.6
2022-08-25T06:45:07.000Z,4.8
2022-08-25T06:46:37.000Z,5.1
2022-08-25T06:48:08.000Z,4.9
2022-08-25T06:49:38.000Z,5.1
2022-08-25T06:50:55.000Z,4.6
2022-08-25T06:52:12.000Z,4.5
2022-08-25T06:53:43.000Z,4.7
2022-08-25T06:55:13.000Z,4.7
2022-08-25T06:56:44.000Z,4.5
2022-08-25T06:58:14.000Z,4.9
2022-08-25T06:59:45.000Z,4.6
2022-08-25T07:01:15.000Z,4.2
2022-08-25T07:02:46.000Z,4.5
2022-08-25T07:05:47.000Z,4.6
2022-08-25T07:07:04.000Z,4.4
2022-08-25T07:08:21.000Z,4.7
2022-08-25T07:09:51.000Z,4.6
2022-08-25T07:11:22.000Z,4.6
2022-08-25T07:12:52.000Z,4.4
2022-08-25T07:14:23.000Z,4.3
2022-08-25T07:15:53.000Z,4.1
2022-08-25T07:17:24.000Z,4.4
2022-08-25T07:18:54.000Z,4.5
2022-08-25T07:20:25.000Z,4.2
2022-08-25T07:21:56.000Z,4.2
2022-08-25T07:24:29.000Z,4.2
2022-08-25T07:26:00.000Z,4.4
2022-08-25T07:27:30.000Z,4.4
2022-08-25T07:29:01.000Z,4.3
2022-08-25T07:30:32.000Z,4.4
2022-08-25T07:32:02.000Z,4.1
2022-08-25T07:33:33.000Z,4.1
2022-08-25T07:35:03.000Z,3.9
2022-08-25T07:36:34.000Z,4
2022-08-25T07:39:21.000Z,4
2022-08-25T07:40:38.000Z,4.2
2022-08-25T07:43:39.000Z,3.9
2022-08-25T07:45:10.000Z,4
2022-08-25T07:46:40.000Z,4.1
2022-08-25T07:48:11.000Z,4.1
2022-08-25T07:49:41.000Z,4.3
2022-08-25T07:51:12.000Z,4
2022-08-25T07:52:42.000Z,3.9
2022-08-25T07:54:13.000Z,4.3
2022-08-25T07:55:30.000Z,3.9
2022-08-25T07:56:47.000Z,4.1
2022-08-25T07:59:48.000Z,3.8
2022-08-25T08:01:18.000Z,3.7
2022-08-25T08:02:49.000Z,4.1
2022-08-25T08:04:19.000Z,3.8
2022-08-25T08:05:50.000Z,3.7
2022-08-25T08:07:20.000Z,3.8
2022-08-25T08:10:21.000Z,4.8
2022-08-25T08:11:38.000Z,5.1
2022-08-25T08:14:26.000Z,5.3
2022-08-25T08:15:56.000Z,5
2022-08-25T08:17:27.000Z,5.4
2022-08-25T08:18:57.000Z,5.2
2022-08-25T08:20:28.000Z,5
2022-08-25T08:21:58.000Z,4.8
2022-08-25T08:23:29.000Z,4.9
2022-08-25T08:24:59.000Z,4.8
2022-08-25T08:27:47.000Z,4.8
2022-08-25T08:29:04.000Z,4.7
2022-08-25T08:33:35.000Z,4.6
2022-08-25T08:35:06.000Z,4.8
2022-08-25T08:36:36.000Z,4.4
2022-08-25T08:38:07.000Z,4.4
2022-08-25T08:39:37.000Z,4.2
2022-08-25T08:43:55.000Z,4.4
2022-08-25T08:45:12.000Z,4.2
2022-08-25T08:46:43.000Z,4.4
2022-08-25T08:49:44.000Z,4
2022-08-25T08:51:14.000Z,4.4
2022-08-25T08:52:45.000Z,4.1
2022-08-25T08:54:15.000Z,4.7
2022-08-25T08:55:46.000Z,3.9
2022-08-25T08:57:16.000Z,3.9
2022-08-25T09:00:12.000Z,4.1
2022-08-25T09:01:29.000Z,4.1
2022-08-25T09:02:59.000Z,4.3
2022-08-25T09:04:30.000Z,4.3
2022-08-25T09:06:01.000Z,4
2022-08-25T09:07:31.000Z,4.3
2022-08-25T09:09:02.000Z,4.2
2022-08-25T09:10:32.000Z,4.5
2022-08-25T09:12:03.000Z,4.1
2022-08-25T09:13:33.000Z,4.5
2022-08-25T09:15:04.000Z,4.4
2022-08-25T09:17:37.000Z,4.6
2022-08-25T09:19:08.000Z,4.7
2022-08-25T09:20:38.000Z,4.5
2022-08-25T09:22:09.000Z,4.4
2022-08-25T09:23:39.000Z,4.5
2022-08-25T09:25:10.000Z,4.6
2022-08-25T09:26:40.000Z,4.9
2022-08-25T09:29:41.000Z,4.7
2022-08-25T09:31:12.000Z,4.6
2022-08-25T09:32:29.000Z,4.5
2022-08-25T09:33:46.000Z,4.7
2022-08-25T09:35:16.000Z,4.7
2022-08-25T09:38:17.000Z,4.4
2022-08-25T09:39:48.000Z,4.9
2022-08-25T09:41:18.000Z,4.6
2022-08-25T09:42:49.000Z,4.7
2022-08-25T09:44:19.000Z,4.4
2022-08-25T09:47:20.000Z,3.9
2022-08-25T09:49:54.000Z,4.5
2022-08-25T09:51:25.000Z,4.8
2022-08-25T09:52:55.000Z,4.7
2022-08-25T09:54:26.000Z,11.4
2022-08-25T09:55:56.000Z,5.3
2022-08-25T09:57:27.000Z,4.8
2022-08-25T09:58:57.000Z,5.2
2022-08-25T10:00:28.000Z,5
2022-08-25T10:01:58.000Z,5.1
2022-08-25T10:03:29.000Z,5.2
2022-08-25T10:06:03.000Z,5.6
2022-08-25T10:07:33.000Z,5.8
2022-08-25T10:09:04.000Z,5
2022-08-25T10:10:34.000Z,4.9
2022-08-25T10:12:05.000Z,5
2022-08-25T10:13:35.000Z,4.8
2022-08-25T10:15:06.000Z,5.4
2022-08-25T10:16:36.000Z,5.1
2022-08-25T10:18:07.000Z,5.3
2022-08-25T10:19:37.000Z,5.2
2022-08-25T10:20:54.000Z,4.9
2022-08-25T10:22:11.000Z,5.1
2022-08-25T10:23:42.000Z,5.1
2022-08-25T10:25:12.000Z,5
2022-08-25T10:26:43.000Z,4.9
2022-08-25T10:28:13.000Z,5.1
2022-08-25T10:29:44.000Z,4.9
2022-08-25T10:31:14.000Z,5.2
2022-08-25T10:32:45.000Z,5.4
2022-08-25T10:34:15.000Z,5.4
2022-08-25T10:35:46.000Z,4.9
2022-08-25T10:37:03.000Z,4.9
2022-08-25T10:38:20.000Z,5.3
2022-08-25T10:39:50.000Z,5.5
2022-08-25T10:41:21.000Z,5.3
2022-08-25T10:42:51.000Z,5.3
2022-08-25T10:44:22.000Z,4.8
2022-08-25T10:45:52.000Z,4.7
2022-08-25T10:47:23.000Z,5.1
2022-08-25T10:48:54.000Z,4.7
2022-08-25T10:50:24.000Z,5
2022-08-25T10:51:55.000Z,4.7
2022-08-25T10:53:12.000Z,4.6
2022-08-25T10:54:28.000Z,4.4
2022-08-25T10:55:59.000Z,4.6
2022-08-25T10:57:30.000Z,4.2
2022-08-25T10:59:00.000Z,4.5
2022-08-25T11:00:31.000Z,4.7
2022-08-25T11:02:01.000Z,4.3
2022-08-25T11:03:32.000Z,4.5
2022-08-25T11:05:02.000Z,4.5
2022-08-25T11:06:33.000Z,4.6
2022-08-25T11:09:20.000Z,4.3
2022-08-25T11:12:08.000Z,4.5
2022-08-25T11:13:38.000Z,4.6
2022-08-25T11:15:09.000Z,4.8
2022-08-25T11:16:39.000Z,4.7
2022-08-25T11:18:10.000Z,4.5
2022-08-25T11:19:40.000Z,4.8
2022-08-25T11:21:11.000Z,4.7
2022-08-25T11:22:41.000Z,4.7
2022-08-25T11:24:12.000Z,4.7
2022-08-25T11:25:29.000Z,4.7
2022-08-25T11:26:46.000Z,4.8
2022-08-25T11:28:16.000Z,5
2022-08-25T11:31:17.000Z,4.9
2022-08-25T11:32:48.000Z,6.1
2022-08-25T11:34:18.000Z,4.6
2022-08-25T11:35:49.000Z,4.7
2022-08-25T11:38:50.000Z,4.2
2022-08-25T11:40:20.000Z,4.4
2022-08-25T11:41:37.000Z,4.4
2022-08-25T11:42:54.000Z,4.4
2022-08-25T11:44:24.000Z,4.9
2022-08-25T11:47:25.000Z,5.1
2022-08-25T11:48:56.000Z,4.9
2022-08-25T11:50:26.000Z,5
2022-08-25T11:51:57.000Z,4.8
2022-08-25T11:53:27.000Z,5.1
2022-08-25T11:54:58.000Z,4.8
2022-08-25T11:56:28.000Z,4.6
2022-08-25T11:57:45.000Z,5
2022-08-25T11:59:02.000Z,4.9
2022-08-25T12:00:33.000Z,5.1
2022-08-25T12:02:03.000Z,5
2022-08-25T12:03:34.000Z,4.8
2022-08-25T12:05:04.000Z,4.8
2022-08-25T12:06:35.000Z,4.7
2022-08-25T12:08:05.000Z,4.9
2022-08-25T12:09:36.000Z,5.2
2022-08-25T12:11:06.000Z,5.4
2022-08-25T12:12:37.000Z,4.8
2022-08-25T12:13:54.000Z,4.9
2022-08-25T12:15:11.000Z,4.8
2022-08-25T12:16:41.000Z,5.4
2022-08-25T12:18:12.000Z,4.7
2022-08-25T12:19:42.000Z,5
2022-08-25T12:21:13.000Z,5.3
2022-08-25T12:22:43.000Z,5.4
2022-08-25T12:24:14.000Z,5
2022-08-25T12:25:44.000Z,5.4
2022-08-25T12:27:15.000Z,5.5
2022-08-25T12:28:45.000Z,5.4
2022-08-25T12:31:19.000Z,5.3
2022-08-25T12:32:50.000Z,5.6
2022-08-25T12:34:20.000Z,5.3
2022-08-25T12:37:21.000Z,5.2
2022-08-25T12:38:52.000Z,5.2
2022-08-25T12:40:22.000Z,5.3
2022-08-25T12:41:53.000Z,5.2
2022-08-25T12:43:23.000Z,5.2
2022-08-25T12:44:54.000Z,5.9
2022-08-25T12:46:11.000Z,5.6
2022-08-25T12:47:28.000Z,5.9
2022-08-25T12:48:58.000Z,5.8
2022-08-25T12:50:29.000Z,5.7
2022-08-25T12:51:59.000Z,5.1
2022-08-25T12:53:30.000Z,5.3
2022-08-25T12:55:00.000Z,5.2
2022-08-25T12:56:31.000Z,4.8
2022-08-25T12:58:02.000Z,5.3
2022-08-25T12:59:32.000Z,5.2
2022-08-25T13:01:03.000Z,5.3
2022-08-25T13:02:20.000Z,5.3
2022-08-25T13:03:36.000Z,5.2
2022-08-25T13:05:07.000Z,5.6
2022-08-25T13:06:38.000Z,5.5
2022-08-25T13:08:08.000Z,5.6
2022-08-25T13:09:39.000Z,5.4
2022-08-25T13:11:09.000Z,5.4
2022-08-25T13:12:40.000Z,5.2
2022-08-25T13:14:10.000Z,5.7
2022-08-25T13:15:41.000Z,5.3
2022-08-25T13:17:11.000Z,5.5
2022-08-25T13:18:28.000Z,5
2022-08-25T13:19:45.000Z,5.5
2022-08-25T13:21:15.000Z,5.2
2022-08-25T13:22:46.000Z,5.2
2022-08-25T13:24:16.000Z,5.2
2022-08-25T13:25:47.000Z,5.2
2022-08-25T13:27:17.000Z,5.2
2022-08-25T13:30:18.000Z,5
2022-08-25T13:31:49.000Z,5.1
2022-08-25T13:33:19.000Z,4.8
2022-08-25T13:34:36.000Z,5.3
2022-08-25T13:35:53.000Z,5.2
2022-08-25T13:37:24.000Z,4.9
2022-08-25T13:38:54.000Z,5.1
2022-08-25T13:40:25.000Z,5.3
2022-08-25T13:41:55.000Z,5.1
2022-08-25T13:43:26.000Z,5
2022-08-25T13:44:56.000Z,5.3
2022-08-25T13:46:27.000Z,5
2022-08-25T13:47:57.000Z,4.6
2022-08-25T13:49:28.000Z,5.2
2022-08-25T13:50:45.000Z,5.2
2022-08-25T13:52:02.000Z,5.3
2022-08-25T13:53:32.000Z,4.8
2022-08-25T13:55:03.000Z,5.3
2022-08-25T13:56:33.000Z,5.2
2022-08-25T13:58:12.000Z,5.3
2022-08-25T13:59:42.000Z,6.4
2022-08-25T14:01:13.000Z,4.9
2022-08-25T14:02:43.000Z,4.9
2022-08-25T14:04:14.000Z,5.1
2022-08-25T14:05:45.000Z,5
2022-08-25T14:07:01.000Z,5.5
2022-08-25T14:08:18.000Z,5.3
2022-08-25T14:09:49.000Z,5.7
2022-08-25T14:11:19.000Z,5.4
2022-08-25T14:12:50.000Z,5.5
2022-08-25T14:14:21.000Z,5.3
2022-08-25T14:15:51.000Z,5.5
2022-08-25T14:17:22.000Z,5.6
2022-08-25T14:18:52.000Z,5
2022-08-25T14:20:23.000Z,4.8
2022-08-25T14:21:53.000Z,4.9
2022-08-25T14:23:10.000Z,4.9
2022-08-25T14:24:27.000Z,5
2022-08-25T14:25:58.000Z,5.1
2022-08-25T14:27:28.000Z,5.1
2022-08-25T14:30:29.000Z,5.2
2022-08-25T14:32:00.000Z,5.3
2022-08-25T14:33:30.000Z,5.4
2022-08-25T14:35:01.000Z,5.4
2022-08-25T14:36:31.000Z,5.8
2022-08-25T14:38:02.000Z,5.3
2022-08-25T14:39:19.000Z,5
2022-08-25T14:40:36.000Z,5.4
2022-08-25T14:42:06.000Z,5.8
2022-08-25T14:43:37.000Z,5.6
2022-08-25T14:45:07.000Z,5.5
2022-08-25T14:46:38.000Z,5.5
2022-08-25T14:48:08.000Z,5.6
2022-08-25T14:49:39.000Z,6.1
2022-08-25T14:51:09.000Z,5.6
2022-08-25T14:54:10.000Z,5.2
2022-08-25T14:55:27.000Z,5.6
2022-08-25T14:56:44.000Z,5.4
2022-08-25T14:58:15.000Z,5.7
2022-08-25T14:59:45.000Z,5.6
2022-08-25T15:01:16.000Z,5.3
2022-08-25T15:02:46.000Z,5.4
2022-08-25T15:04:17.000Z,5.4
2022-08-25T15:05:47.000Z,5.6
2022-08-25T15:07:18.000Z,5.6
2022-08-25T15:08:48.000Z,5.9
2022-08-25T15:10:19.000Z,5.7
2022-08-25T15:11:36.000Z,5.5
2022-08-25T15:12:53.000Z,5.8
2022-08-25T15:14:23.000Z,5.7
2022-08-25T15:15:54.000Z,5.7
2022-08-25T15:17:24.000Z,5.5
2022-08-25T15:18:55.000Z,5.7
2022-08-25T15:20:25.000Z,5.6
2022-08-25T15:21:56.000Z,5.6
2022-08-25T15:23:26.000Z,5.3
2022-08-25T15:24:57.000Z,5.4
2022-08-25T15:26:27.000Z,5.7
2022-08-25T15:29:01.000Z,5.5
2022-08-25T15:30:32.000Z,5.2
2022-08-25T15:32:02.000Z,5.4
2022-08-25T15:33:33.000Z,5
2022-08-25T15:35:03.000Z,5.5
2022-08-25T15:38:04.000Z,5.6
2022-08-25T15:39:35.000Z,5
2022-08-25T15:41:05.000Z,5.4
2022-08-25T15:42:36.000Z,5.4
2022-08-25T15:43:53.000Z,5
2022-08-25T15:45:10.000Z,5.5
2022-08-25T15:46:40.000Z,5.3
2022-08-25T15:49:41.000Z,5.2
2022-08-25T15:51:12.000Z,5.1
2022-08-25T15:52:42.000Z,5.4
2022-08-25T15:54:13.000Z,5.3
2022-08-25T15:55:43.000Z,5
2022-08-25T15:57:14.000Z,5.4
2022-08-25T15:58:44.000Z,5.1
2022-08-25T16:00:01.000Z,5.1
2022-08-25T16:01:18.000Z,5.2
2022-08-25T16:02:49.000Z,5.1
2022-08-25T16:04:19.000Z,5
2022-08-25T16:05:50.000Z,4.7
2022-08-25T16:07:20.000Z,5.7
2022-08-25T16:08:51.000Z,5.5
2022-08-25T16:10:21.000Z,4.9
2022-08-25T16:11:52.000Z,4.9
2022-08-25T16:13:22.000Z,5.3
2022-08-25T16:14:53.000Z,4.9
2022-08-25T16:16:10.000Z,4.9
2022-08-25T16:17:27.000Z,5.3
2022-08-25T16:18:57.000Z,4.9
2022-08-25T16:20:28.000Z,5.4
2022-08-25T16:21:58.000Z,4.8
2022-08-25T16:23:29.000Z,5.2
2022-08-25T16:24:59.000Z,5.1
2022-08-25T16:26:30.000Z,5.1
2022-08-25T16:28:00.000Z,5.7
2022-08-25T16:29:31.000Z,5.3
2022-08-25T16:31:01.000Z,5.1
2022-08-25T16:32:18.000Z,5.1
2022-08-25T16:33:35.000Z,4.9
2022-08-25T16:35:06.000Z,5.3
2022-08-25T16:36:36.000Z,4.8
2022-08-25T16:38:07.000Z,5.3
2022-08-25T16:39:37.000Z,4.9
2022-08-25T16:41:08.000Z,5.1
2022-08-25T16:42:38.000Z,4.9
2022-08-25T16:44:09.000Z,4.8
2022-08-25T16:45:40.000Z,5
2022-08-25T16:47:10.000Z,5
2022-08-25T16:48:27.000Z,4.9
2022-08-25T16:49:44.000Z,5.1
2022-08-25T16:51:14.000Z,4.9
2022-08-25T16:52:45.000Z,5.2
2022-08-25T16:54:16.000Z,4.8
2022-08-25T16:55:46.000Z,4.6
2022-08-25T16:57:17.000Z,5.5
2022-08-25T16:58:47.000Z,5.4
2022-08-25T17:00:18.000Z,5.1
2022-08-25T17:01:48.000Z,4.7
2022-08-25T17:04:36.000Z,5
2022-08-25T17:05:53.000Z,4.8
2022-08-25T17:07:23.000Z,4.6
2022-08-25T17:08:54.000Z,4.7
2022-08-25T17:10:24.000Z,4.5
2022-08-25T17:11:55.000Z,4.6
2022-08-25T17:13:25.000Z,4.5
2022-08-25T17:14:56.000Z,4.4
2022-08-25T17:16:26.000Z,4.9
2022-08-25T17:17:57.000Z,4.7
2022-08-25T17:19:27.000Z,4.4
2022-08-25T17:20:44.000Z,4.8
2022-08-25T17:22:01.000Z,4.6
2022-08-25T17:23:32.000Z,4.7
2022-08-25T17:25:02.000Z,4.9
2022-08-25T17:26:33.000Z,5.7
2022-08-25T17:28:03.000Z,4.8
2022-08-25T17:29:34.000Z,4.6
2022-08-25T17:31:04.000Z,4.9
2022-08-25T17:32:35.000Z,5
2022-08-25T17:34:05.000Z,4.5
2022-08-25T17:35:36.000Z,5
2022-08-25T17:36:53.000Z,4.7
2022-08-25T17:38:10.000Z,4.8
2022-08-25T17:39:40.000Z,4.7
2022-08-25T17:41:11.000Z,5.1
2022-08-25T17:42:41.000Z,4.7
2022-08-25T17:44:12.000Z,4.8
2022-08-25T17:45:42.000Z,4.8
2022-08-25T17:47:13.000Z,5
2022-08-25T17:48:43.000Z,4.9
2022-08-25T17:50:14.000Z,4.6
2022-08-25T17:51:44.000Z,4.3
2022-08-25T17:53:01.000Z,4.6
2022-08-25T17:54:18.000Z,4.5
2022-08-25T17:55:49.000Z,4.5
2022-08-25T17:57:19.000Z,4.8
2022-08-25T17:58:50.000Z,4.4
2022-08-25T18:00:20.000Z,4.7
2022-08-25T18:01:51.000Z,4.4
2022-08-25T18:03:21.000Z,4.8
2022-08-25T18:04:52.000Z,5.3
2022-08-25T18:06:22.000Z,4.3
2022-08-25T18:07:53.000Z,5.1
2022-08-25T18:10:27.000Z,5.2
2022-08-25T18:11:57.000Z,5
2022-08-25T18:13:28.000Z,4.9
2022-08-25T18:14:58.000Z,5.4
2022-08-25T18:16:29.000Z,5.4
2022-08-25T18:17:59.000Z,5.6
2022-08-25T18:19:30.000Z,4.8
2022-08-25T18:21:00.000Z,4.9
2022-08-25T18:22:31.000Z,4.6
2022-08-25T18:24:01.000Z,5.2
2022-08-25T18:25:18.000Z,4.8
2022-08-25T18:26:35.000Z,4.6
2022-08-25T18:28:06.000Z,4.9
2022-08-25T18:29:36.000Z,4.8
2022-08-25T18:31:07.000Z,5
2022-08-25T18:32:37.000Z,4.9
2022-08-25T18:34:08.000Z,4.5
2022-08-25T18:35:38.000Z,4.7
2022-08-25T18:37:09.000Z,4.8
2022-08-25T18:38:39.000Z,4.5
2022-08-25T18:40:10.000Z,4.6
2022-08-25T18:41:27.000Z,4.8
2022-08-25T18:42:44.000Z,4.8
2022-08-25T18:44:14.000Z,4.8
2022-08-25T18:45:45.000Z,5.3
2022-08-25T18:47:15.000Z,5.2
2022-08-25T18:48:46.000Z,5.1
2022-08-25T18:50:16.000Z,5.4
2022-08-25T18:51:47.000Z,5.2
2022-08-25T18:53:26.000Z,5.1
2022-08-25T18:56:27.000Z,5.3
2022-08-25T18:57:44.000Z,5.4
2022-08-25T18:59:01.000Z,5.4
2022-08-25T19:00:31.000Z,6
2022-08-25T19:02:02.000Z,5.8
2022-08-25T19:03:32.000Z,5.3
2022-08-25T19:05:03.000Z,5.2
2022-08-25T19:06:33.000Z,5.2
2022-08-25T19:08:04.000Z,5.2
2022-08-25T19:09:34.000Z,5
2022-08-25T19:11:05.000Z,5.2
2022-08-25T19:12:35.000Z,5.2
2022-08-25T19:13:52.000Z,5.4
2022-08-25T19:15:09.000Z,5
2022-08-25T19:16:40.000Z,5
2022-08-25T19:18:10.000Z,5
2022-08-25T19:19:41.000Z,5.5
2022-08-25T19:21:11.000Z,5.6
2022-08-25T19:22:42.000Z,5.1
2022-08-25T19:24:12.000Z,5.3
2022-08-25T19:25:43.000Z,5.2
2022-08-25T19:27:13.000Z,5
2022-08-25T19:28:44.000Z,5.3
2022-08-25T19:30:00.000Z,5
2022-08-25T19:31:17.000Z,4.9
2022-08-25T19:32:48.000Z,4.8
2022-08-25T19:34:18.000Z,4.9
2022-08-25T19:35:49.000Z,5.4
2022-08-25T19:37:19.000Z,5.6
2022-08-25T19:38:50.000Z,5.1
2022-08-25T19:40:20.000Z,5.7
2022-08-25T19:41:51.000Z,5.9
2022-08-25T19:43:21.000Z,5.4
2022-08-25T19:46:09.000Z,5.5
2022-08-25T19:47:26.000Z,5.4
2022-08-25T19:48:56.000Z,5.3
2022-08-25T19:50:27.000Z,6.5
2022-08-25T19:51:57.000Z,7.3
2022-08-25T19:53:28.000Z,7.7
2022-08-25T19:54:58.000Z,6.6
2022-08-25T19:56:29.000Z,6.4
2022-08-25T19:57:59.000Z,6.3
2022-08-25T19:59:30.000Z,6.8
2022-08-25T20:01:00.000Z,6.5
2022-08-25T20:02:17.000Z,6
2022-08-25T20:03:34.000Z,6.1
2022-08-25T20:05:05.000Z,6.2
2022-08-25T20:06:35.000Z,5.7
2022-08-25T20:08:06.000Z,6.2
2022-08-25T20:09:36.000Z,6.2
2022-08-25T20:11:07.000Z,6.1
2022-08-25T20:12:37.000Z,5.9
2022-08-25T20:14:08.000Z,6.3
2022-08-25T20:15:38.000Z,6.1
2022-08-25T20:17:09.000Z,6
2022-08-25T20:18:26.000Z,5.8
2022-08-25T20:19:43.000Z,6.4
2022-08-25T20:21:13.000Z,5.7
2022-08-25T20:22:44.000Z,6.3
2022-08-25T20:24:14.000Z,5.7
2022-08-25T20:25:45.000Z,5.9
2022-08-25T20:27:15.000Z,5.9
2022-08-25T20:28:46.000Z,5.8
2022-08-25T20:30:16.000Z,5.5
2022-08-25T20:31:47.000Z,5.8
2022-08-25T20:33:18.000Z,5.6
2022-08-25T20:34:34.000Z,5.9
2022-08-25T20:35:51.000Z,6.1
2022-08-25T20:37:22.000Z,6
2022-08-25T20:38:52.000Z,6.3
2022-08-25T20:40:23.000Z,6.3
2022-08-25T20:41:53.000Z,6.7
2022-08-25T20:43:24.000Z,6.7
2022-08-25T20:44:55.000Z,6.6
2022-08-25T20:46:25.000Z,6.9
2022-08-25T20:47:56.000Z,6.6
2022-08-25T20:49:26.000Z,6.3
2022-08-25T20:52:00.000Z,6.5
2022-08-25T20:53:31.000Z,6.8
2022-08-25T20:55:01.000Z,6.7
2022-08-25T20:56:32.000Z,6.4
2022-08-25T20:58:02.000Z,6.5
2022-08-25T20:59:33.000Z,5.9
2022-08-25T21:01:03.000Z,6.2
2022-08-25T21:02:34.000Z,5.8
2022-08-25T21:04:04.000Z,5.8
2022-08-25T21:05:35.000Z,6.2
2022-08-25T21:06:52.000Z,6.4
2022-08-25T21:08:09.000Z,6
2022-08-25T21:09:39.000Z,6.9
2022-08-25T21:11:10.000Z,6.5
2022-08-25T21:12:40.000Z,7.1
2022-08-25T21:14:11.000Z,6.8
2022-08-25T21:15:41.000Z,7.4
2022-08-25T21:17:12.000Z,7.2
2022-08-25T21:18:42.000Z,7.5
2022-08-25T21:20:13.000Z,7
2022-08-25T21:21:43.000Z,7.1
2022-08-25T21:23:00.000Z,7.1
2022-08-25T21:24:17.000Z,7.6
2022-08-25T21:25:48.000Z,6.9
2022-08-25T21:27:18.000Z,7
2022-08-25T21:28:49.000Z,6.7
2022-08-25T21:30:19.000Z,7.2
2022-08-25T21:31:50.000Z,7.1